Time;durP1;ratioP1;P1;durP2;ratioP2;P2;SDS_P1;SDS_P2;PMS_P1;PMS_P2;Temp;Humidity;BMP_temperature;BMP_pressure;BME280_temperature;BME280_humidity;BME280_pressure;Samples;Min_cycle;Max_cycle;Signal;HPM_P1;HPM_P2
2022/12/10 00:02:12;;;;;;;16.57;12.43;;;0.90;99.90;;;;;;5066864;28;20535;-49
2022/12/10 00:04:38;;;;;;;15.23;12.97;;;0.90;99.90;;;;;;5059391;28;20968;-51
2022/12/10 00:07:05;;;;;;;15.33;12.43;;;0.80;99.90;;;;;;5065533;28;20442;-49
2022/12/10 00:09:32;;;;;;;13.07;11.40;;;1.00;99.90;;;;;;5064961;28;20440;-48
2022/12/10 00:11:59;;;;;;;14.00;12.50;;;1.10;99.90;;;;;;5054553;28;21019;-49
2022/12/10 00:14:26;;;;;;;14.10;12.67;;;1.10;99.90;;;;;;5066512;28;21005;-49
2022/12/10 00:16:54;;;;;;;13.33;11.40;;;1.10;99.90;;;;;;5062734;28;20528;-49
2022/12/10 00:19:21;;;;;;;13.97;11.70;;;0.70;99.90;;;;;;5051305;28;20450;-49
2022/12/10 00:21:48;;;;;;;13.87;12.53;;;0.80;99.90;;;;;;5051423;28;20939;-50
2022/12/10 00:24:14;;;;;;;12.83;10.90;;;1.00;99.90;;;;;;5051900;28;20996;-49
2022/12/10 00:26:42;;;;;;;18.73;12.30;;;0.70;99.90;;;;;;5050070;28;20448;-49
2022/12/10 00:29:12;;;;;;;12.83;10.70;;;0.60;99.90;;;;;;5058267;28;20441;-49
2022/12/10 00:31:39;;;;;;;12.83;11.20;;;0.60;99.90;;;;;;5053195;28;20478;-51
2022/12/10 00:34:10;;;;;;;15.03;11.93;;;0.80;99.90;;;;;;5060362;28;20548;-49
2022/12/10 00:36:39;;;;;;;16.33;13.17;;;1.00;99.90;;;;;;5068458;28;20543;-51
2022/12/10 00:39:06;;;;;;;12.00;10.60;;;1.10;99.90;;;;;;5067390;28;20563;-49
2022/12/10 00:41:33;;;;;;;19.57;11.77;;;0.80;99.90;;;;;;5069364;28;20467;-51
2022/12/10 00:43:59;;;;;;;14.30;12.53;;;0.50;99.90;;;;;;5061212;28;20473;-49
2022/12/10 00:46:27;;;;;;;14.70;11.80;;;0.30;99.90;;;;;;5052156;28;20444;-49
2022/12/10 00:48:54;;;;;;;18.23;11.57;;;0.30;99.90;;;;;;5051142;28;20528;-49
2022/12/10 00:51:24;;;;;;;14.90;12.83;;;0.30;99.90;;;;;;5050891;28;20873;-50
2022/12/10 00:53:53;;;;;;;13.73;12.00;;;0.50;99.90;;;;;;5051810;28;21069;-50
2022/12/10 00:56:22;;;;;;;18.13;12.10;;;0.60;99.90;;;;;;5050994;28;20479;-52
2022/12/10 00:58:50;;;;;;;16.20;11.77;;;0.70;99.90;;;;;;5066596;28;20563;-49
2022/12/10 01:01:19;;;;;;;16.30;13.83;;;0.80;99.90;;;;;;5057634;28;20791;-49
2022/12/10 01:03:47;;;;;;;17.80;12.10;;;0.70;99.90;;;;;;5064529;28;20548;-51
2022/12/10 01:06:18;;;;;;;15.90;11.67;;;0.60;99.90;;;;;;5069362;28;20524;-49
2022/12/10 01:08:47;;;;;;;17.60;12.80;;;0.80;99.90;;;;;;5068941;28;20447;-49
2022/12/10 01:11:16;;;;;;;15.23;12.67;;;0.90;99.90;;;;;;5070420;28;20540;-51
2022/12/10 01:13:44;;;;;;;16.97;12.47;;;0.90;99.90;;;;;;5068968;28;20560;-49
2022/12/10 01:16:14;;;;;;;15.60;11.47;;;0.80;99.90;;;;;;5050980;28;20850;-49
2022/12/10 01:18:41;;;;;;;16.73;12.43;;;0.80;99.90;;;;;;5058217;28;20568;-51
2022/12/10 01:21:13;;;;;;;16.50;12.67;;;0.80;99.90;;;;;;5055228;28;20433;-49
2022/12/10 01:23:42;;;;;;;13.20;11.40;;;0.80;99.90;;;;;;5053160;28;20536;-49
2022/12/10 01:26:13;;;;;;;16.43;11.67;;;0.70;99.90;;;;;;5070921;28;20869;-50
2022/12/10 01:28:40;;;;;;;14.30;12.80;;;0.80;99.90;;;;;;5071065;28;20471;-51
2022/12/10 01:31:10;;;;;;;12.43;11.13;;;0.80;99.90;;;;;;5070946;28;20519;-50
2022/12/10 01:33:37;;;;;;;13.27;11.87;;;0.90;99.90;;;;;;5070207;28;20462;-49
2022/12/10 01:36:05;;;;;;;13.70;11.70;;;0.80;99.90;;;;;;5070568;28;20440;-50
2022/12/10 01:38:32;;;;;;;17.43;12.83;;;0.90;99.90;;;;;;5070286;28;20563;-51
2022/12/10 01:41:00;;;;;;;13.07;11.70;;;0.90;99.90;;;;;;5066146;28;20894;-49
2022/12/10 01:43:28;;;;;;;13.73;12.43;;;1.00;99.90;;;;;;5065741;28;20893;-49
2022/12/10 01:45:55;;;;;;;14.80;11.53;;;1.00;99.90;;;;;;5049596;28;20533;-49
2022/12/10 01:48:22;;;;;;;14.20;11.73;;;0.70;99.90;;;;;;5050115;28;20529;-49
2022/12/10 01:50:49;;;;;;;15.83;11.87;;;0.50;99.90;;;;;;5050572;28;20556;-50
2022/12/10 01:53:16;;;;;;;16.63;13.30;;;0.50;99.90;;;;;;5049742;28;20466;-49
2022/12/10 01:55:47;;;;;;;13.60;12.23;;;0.70;99.90;;;;;;5049897;28;20609;-51
2022/12/10 01:58:15;;;;;;;15.37;12.97;;;0.80;99.90;;;;;;5052579;28;20560;-49
2022/12/10 02:00:59;;;;;;;14.40;12.50;;;0.70;99.90;;;;;;5053653;28;20532;-47
2022/12/10 02:03:36;;;;;;;13.97;12.47;;;0.70;99.90;;;;;;5053445;28;20540;-50
2022/12/10 02:06:12;;;;;;;13.20;11.80;;;0.70;99.90;;;;;;5053733;28;20452;-48
2022/12/10 02:08:46;;;;;;;14.73;11.80;;;0.70;99.90;;;;;;5058647;28;20441;-49
2022/12/10 02:11:18;;;;;;;16.40;13.30;;;0.50;99.90;;;;;;5056065;28;20537;-49
2022/12/10 02:13:53;;;;;;;14.20;12.13;;;0.40;99.90;;;;;;5058996;28;21052;-50
2022/12/10 02:16:27;;;;;;;18.33;13.23;;;0.50;99.90;;;;;;5072115;28;20472;-49
2022/12/10 02:18:58;;;;;;;14.70;13.07;;;0.40;99.90;;;;;;5066569;28;20556;-49
2022/12/10 02:21:33;;;;;;;16.67;12.20;;;0.80;99.90;;;;;;5072352;28;20532;-50
2022/12/10 02:24:04;;;;;;;107.63;52.40;;;1.00;99.90;;;;;;5063589;28;20544;-49
2022/12/10 02:26:38;;;;;;;22.53;16.90;;;1.10;99.90;;;;;;5053753;28;20438;-49
2022/12/10 02:29:13;;;;;;;15.63;12.90;;;1.00;99.90;;;;;;5061222;28;20527;-49
2022/12/10 02:31:45;;;;;;;16.47;12.53;;;0.70;99.90;;;;;;5071987;28;20536;-49
2022/12/10 02:34:14;;;;;;;20.50;14.23;;;0.90;99.90;;;;;;5073963;28;20551;-50
2022/12/10 02:36:45;;;;;;;18.37;13.07;;;0.70;99.90;;;;;;5072966;28;20875;-49
2022/12/10 02:39:14;;;;;;;16.17;12.57;;;0.90;99.90;;;;;;5061359;28;20475;-49
2022/12/10 02:41:44;;;;;;;16.43;11.70;;;1.10;99.90;;;;;;5071513;28;20532;-49
2022/12/10 02:44:15;;;;;;;17.20;13.97;;;0.90;99.90;;;;;;5071456;28;20877;-49
2022/12/10 02:46:44;;;;;;;14.10;12.53;;;0.40;99.90;;;;;;5071172;28;20571;-50
2022/12/10 02:49:14;;;;;;;17.60;12.43;;;0.20;99.90;;;;;;5063204;28;20442;-50
2022/12/10 02:51:42;;;;;;;14.60;12.93;;;0.20;99.90;;;;;;5060803;28;21022;-49
2022/12/10 02:54:37;;;;;;;14.67;12.53;;;0.10;99.90;;;;;;5071541;28;20493;-49
2022/12/10 02:57:12;;;;;;;17.90;14.23;;;0.30;99.90;;;;;;5070809;28;20818;-49
2022/12/10 02:59:49;;;;;;;17.17;13.07;;;0.30;99.90;;;;;;5060336;28;20479;-49
2022/12/10 03:02:20;;;;;;;16.37;13.47;;;0.50;99.90;;;;;;5053745;28;20532;-49
2022/12/10 03:04:54;;;;;;;15.90;12.23;;;0.60;99.90;;;;;;5064964;28;20448;-49
2022/12/10 03:07:28;;;;;;;15.20;12.77;;;0.70;99.90;;;;;;5062785;28;20532;-49
2022/12/10 03:10:01;;;;;;;16.27;12.90;;;0.40;99.90;;;;;;5058660;28;20452;-49
2022/12/10 03:12:32;;;;;;;15.10;13.50;;;0.50;99.90;;;;;;5052769;28;20446;-49
2022/12/10 03:15:03;;;;;;;15.87;11.83;;;0.80;99.90;;;;;;5066150;28;20444;-49
2022/12/10 03:17:32;;;;;;;19.07;13.60;;;1.00;99.90;;;;;;5072356;28;20452;-49
2022/12/10 03:20:01;;;;;;;19.87;12.73;;;1.10;99.90;;;;;;5069964;28;20487;-49
2022/12/10 03:22:29;;;;;;;19.00;13.17;;;1.00;99.90;;;;;;5072694;28;20535;-49
2022/12/10 03:24:56;;;;;;;15.57;13.07;;;1.10;99.90;;;;;;5072231;28;20535;-49
2022/12/10 03:27:24;;;;;;;15.90;14.20;;;0.90;99.90;;;;;;5072475;28;20531;-49
2022/12/10 03:29:55;;;;;;;20.63;11.70;;;0.80;99.90;;;;;;5059868;28;20865;-50
2022/12/10 03:32:26;;;;;;;20.57;14.07;;;0.90;99.90;;;;;;5055770;28;20950;-49
2022/12/10 03:34:56;;;;;;;17.03;14.37;;;1.00;99.90;;;;;;5072523;28;20531;-52
2022/12/10 03:37:24;;;;;;;20.80;15.07;;;0.60;99.90;;;;;;5051937;28;20524;-49
2022/12/10 03:39:52;;;;;;;19.03;14.57;;;0.40;99.90;;;;;;5064123;28;20786;-49
2022/12/10 03:42:19;;;;;;;20.80;14.77;;;0.30;99.90;;;;;;5071456;28;20527;-48
2022/12/10 03:44:46;;;;;;;17.77;14.43;;;0.30;99.90;;;;;;5071519;28;20441;-49
2022/12/10 03:47:15;;;;;;;20.33;15.50;;;0.40;99.90;;;;;;5059175;28;20468;-50
2022/12/10 03:49:44;;;;;;;20.10;15.00;;;0.60;99.90;;;;;;5062410;28;20469;-50
2022/12/10 03:52:11;;;;;;;24.17;17.13;;;0.80;99.90;;;;;;5072217;28;20446;-51
2022/12/10 03:54:39;;;;;;;17.93;13.90;;;0.80;99.90;;;;;;5071828;28;20460;-50
2022/12/10 03:57:05;;;;;;;19.13;14.37;;;0.70;99.90;;;;;;5071524;28;20539;-51
2022/12/10 03:59:32;;;;;;;20.37;14.33;;;0.70;99.90;;;;;;5064443;28;20557;-51
2022/12/10 04:01:59;;;;;;;18.40;13.30;;;0.60;99.90;;;;;;5056399;28;20446;-51
2022/12/10 04:04:26;;;;;;;21.73;15.17;;;0.40;99.90;;;;;;5060186;28;20467;-50
2022/12/10 04:06:54;;;;;;;21.67;15.20;;;0.50;99.90;;;;;;5071798;28;20539;-50
2022/12/10 04:09:21;;;;;;;20.33;13.87;;;0.40;99.90;;;;;;5069903;28;20520;-50
2022/12/10 04:11:48;;;;;;;20.60;15.37;;;0.40;99.90;;;;;;5069008;28;20460;-51
2022/12/10 04:17:00;;;;;;;19.03;14.80;;;0.80;99.90;;;;;;5052555;28;20436;-50
2022/12/10 04:19:27;;;;;;;15.33;13.37;;;0.70;99.90;;;;;;5058245;28;20477;-50
2022/12/10 04:27:27;;;;;;;22.70;15.67;;;0.50;99.90;;;;;;5069187;28;20432;-50
2022/12/10 04:29:54;;;;;;;21.50;16.60;;;0.40;99.90;;;;;;5052271;28;20969;-50
2022/12/10 04:32:22;;;;;;;21.83;14.73;;;0.60;99.90;;;;;;5052175;28;20521;-50
2022/12/10 04:34:49;;;;;;;22.30;15.20;;;0.90;99.90;;;;;;5051093;28;20965;-50
2022/12/10 04:37:20;;;;;;;18.97;14.00;;;0.80;99.90;;;;;;5051448;28;20496;-50
2022/12/10 04:39:48;;;;;;;20.77;14.20;;;0.70;99.90;;;;;;5060947;28;20567;-50
2022/12/10 04:42:15;;;;;;;18.27;14.30;;;0.60;99.90;;;;;;5059678;28;20537;-50
2022/12/10 04:44:42;;;;;;;20.40;13.73;;;0.80;99.90;;;;;;5050618;28;20544;-51
2022/12/10 04:47:10;;;;;;;17.83;13.10;;;1.00;99.90;;;;;;5052185;28;20536;-50
2022/12/10 04:49:37;;;;;;;17.63;13.40;;;1.00;99.90;;;;;;5055642;28;20537;-50
2022/12/10 04:52:06;;;;;;;20.33;15.10;;;0.60;99.90;;;;;;5051360;28;20449;-51
2022/12/10 04:54:34;;;;;;;22.80;16.00;;;0.90;99.90;;;;;;5050940;28;20548;-50
2022/12/10 04:57:01;;;;;;;17.43;14.07;;;0.80;99.90;;;;;;5060169;28;20549;-50
2022/12/10 04:59:28;;;;;;;18.93;14.80;;;0.40;99.90;;;;;;5058027;28;20930;-50
2022/12/10 05:01:55;;;;;;;17.80;14.30;;;0.40;99.90;;;;;;5065823;28;20520;-50
2022/12/10 05:04:22;;;;;;;22.83;14.50;;;0.40;99.90;;;;;;5050672;28;20545;-50
2022/12/10 05:06:49;;;;;;;21.37;16.10;;;0.40;99.90;;;;;;5050814;28;20965;-50
2022/12/10 05:09:17;;;;;;;19.27;15.13;;;0.40;99.90;;;;;;5052856;28;20453;-50
2022/12/10 05:11:45;;;;;;;25.20;15.27;;;0.80;99.90;;;;;;5059427;28;20449;-50
2022/12/10 05:14:13;;;;;;;21.73;15.30;;;0.80;99.90;;;;;;5050661;28;20470;-50
2022/12/10 05:16:40;;;;;;;23.27;14.67;;;0.80;99.90;;;;;;5050651;28;20529;-51
2022/12/10 05:19:07;;;;;;;17.53;14.10;;;0.70;99.90;;;;;;5060460;28;20491;-50
2022/12/10 05:24:16;;;;;;;21.87;14.50;;;1.00;99.90;;;;;;5047427;28;20443;-50
2022/12/10 05:26:43;;;;;;;22.40;16.30;;;0.90;99.90;;;;;;5065934;28;20525;-50
2022/12/10 05:29:13;;;;;;;22.30;14.80;;;0.90;99.90;;;;;;5060483;28;20440;-49
2022/12/10 05:31:39;;;;;;;19.10;14.60;;;0.90;99.90;;;;;;5071038;28;20446;-52
2022/12/10 05:34:07;;;;;;;19.27;15.50;;;0.80;99.90;;;;;;5072214;28;20457;-50
2022/12/10 05:36:34;;;;;;;17.37;14.40;;;0.70;99.90;;;;;;5073952;28;20516;-49
2022/12/10 05:39:01;;;;;;;20.17;15.33;;;0.80;99.90;;;;;;5065126;28;20469;-50
2022/12/10 05:41:30;;;;;;;20.63;14.70;;;0.80;99.90;;;;;;5055578;28;20519;-50
2022/12/10 05:43:58;;;;;;;20.50;14.10;;;0.90;99.90;;;;;;5063395;28;21069;-50
2022/12/10 05:46:28;;;;;;;24.00;17.07;;;0.80;99.90;;;;;;5060446;28;20475;-52
2022/12/10 05:48:56;;;;;;;19.10;14.70;;;0.40;99.90;;;;;;5061768;28;20437;-50
2022/12/10 05:51:25;;;;;;;23.03;16.30;;;0.10;99.90;;;;;;5072091;28;20808;-50
2022/12/10 05:53:53;;;;;;;22.90;16.47;;;0.00;99.90;;;;;;5073779;28;20551;-50
2022/12/10 05:56:21;;;;;;;22.83;15.73;;;0.00;99.90;;;;;;5074029;28;20535;-50
2022/12/10 05:58:50;;;;;;;19.40;15.80;;;0.10;99.90;;;;;;5071415;28;20563;-49
2022/12/10 06:01:19;;;;;;;20.00;16.27;;;0.20;99.90;;;;;;5065945;28;20442;-50
2022/12/10 06:03:47;;;;;;;16.03;13.93;;;0.50;99.90;;;;;;5055152;28;20556;-50
2022/12/10 06:06:14;;;;;;;19.90;14.67;;;0.60;99.90;;;;;;5066861;28;20437;-49
2022/12/10 06:08:41;;;;;;;18.17;13.87;;;0.40;99.90;;;;;;5063726;28;21010;-50
2022/12/10 06:11:10;;;;;;;22.77;15.23;;;0.60;99.90;;;;;;5066795;28;20449;-50
2022/12/10 06:13:38;;;;;;;23.77;17.63;;;0.70;99.90;;;;;;5064555;28;20469;-51
2022/12/10 06:16:05;;;;;;;22.50;15.97;;;0.70;99.90;;;;;;5065451;28;20527;-50
2022/12/10 06:18:32;;;;;;;21.53;15.50;;;0.70;99.90;;;;;;5073404;28;20449;-50
2022/12/10 06:21:03;;;;;;;17.93;14.37;;;0.70;99.90;;;;;;5054779;28;20448;-51
2022/12/10 06:23:30;;;;;;;20.03;14.53;;;0.70;99.90;;;;;;5066783;28;20548;-51
2022/12/10 06:25:57;;;;;;;19.57;14.30;;;0.80;99.90;;;;;;5072888;28;20532;-50
2022/12/10 06:28:24;;;;;;;21.70;14.53;;;0.60;99.90;;;;;;5072446;28;20813;-52
2022/12/10 06:30:51;;;;;;;17.87;15.60;;;0.60;99.90;;;;;;5067402;28;20446;-50
2022/12/10 06:33:17;;;;;;;19.63;16.03;;;0.70;99.90;;;;;;5052055;28;20552;-52
2022/12/10 06:35:44;;;;;;;23.23;16.20;;;0.80;99.90;;;;;;5053272;28;20448;-51
2022/12/10 06:38:13;;;;;;;25.37;18.00;;;0.70;99.90;;;;;;5058331;28;20532;-50
2022/12/10 06:40:40;;;;;;;22.60;14.87;;;0.90;99.90;;;;;;5061841;28;20481;-50
2022/12/10 06:43:07;;;;;;;25.20;15.53;;;0.60;99.90;;;;;;5050896;28;20470;-52
2022/12/10 06:45:34;;;;;;;21.30;16.50;;;0.70;99.90;;;;;;5054065;28;20962;-50
2022/12/10 06:48:01;;;;;;;23.13;14.40;;;0.70;99.90;;;;;;5053369;28;20536;-50
2022/12/10 06:50:28;;;;;;;26.97;16.60;;;0.80;99.90;;;;;;5056627;28;20441;-51
2022/12/10 06:52:54;;;;;;;22.30;14.93;;;0.90;99.90;;;;;;5062425;28;20484;-50
2022/12/10 06:55:23;;;;;;;18.10;14.73;;;0.90;99.90;;;;;;5065073;28;20437;-50
2022/12/10 06:57:52;;;;;;;25.60;16.63;;;0.90;99.90;;;;;;5057789;28;20826;-51
2022/12/10 07:00:19;;;;;;;21.17;16.70;;;0.90;99.90;;;;;;5052313;28;20477;-50
2022/12/10 07:02:46;;;;;;;22.47;16.90;;;0.80;99.90;;;;;;5052090;28;20658;-50
2022/12/10 07:05:13;;;;;;;17.20;14.33;;;0.70;99.90;;;;;;5068332;28;20547;-51
2022/12/10 07:07:40;;;;;;;20.87;16.70;;;0.60;99.90;;;;;;5071685;28;20445;-50
2022/12/10 07:10:08;;;;;;;25.40;17.97;;;0.50;99.90;;;;;;5053662;28;20801;-50
2022/12/10 07:12:36;;;;;;;22.87;16.33;;;0.60;99.90;;;;;;5068184;28;20890;-53
2022/12/10 07:15:03;;;;;;;23.10;17.77;;;0.80;99.90;;;;;;5063262;28;20469;-50
2022/12/10 07:17:30;;;;;;;20.67;16.80;;;0.90;99.90;;;;;;5051605;28;20446;-50
2022/12/10 07:19:57;;;;;;;23.40;18.13;;;0.90;99.90;;;;;;5058691;28;20473;-50
2022/12/10 07:22:23;;;;;;;27.67;20.03;;;0.90;99.90;;;;;;5052607;28;20445;-52
2022/12/10 07:24:51;;;;;;;23.37;17.37;;;0.90;99.90;;;;;;5051914;28;20442;-50
2022/12/10 07:27:18;;;;;;;23.37;18.40;;;0.70;99.90;;;;;;5051367;28;20438;-50
2022/12/10 07:29:46;;;;;;;18.53;15.87;;;0.90;99.90;;;;;;5066070;28;20445;-51
2022/12/10 07:32:13;;;;;;;21.93;16.50;;;1.00;99.90;;;;;;5071520;28;20949;-50
2022/12/10 07:34:40;;;;;;;22.80;17.00;;;1.10;99.90;;;;;;5071114;28;20461;-50
2022/12/10 07:37:07;;;;;;;20.77;15.07;;;0.90;99.90;;;;;;5070756;28;20551;-50
2022/12/10 07:39:34;;;;;;;19.97;15.83;;;0.80;99.90;;;;;;5055325;28;20469;-50
2022/12/10 07:42:01;;;;;;;20.77;15.87;;;0.80;99.90;;;;;;5052729;28;20554;-51
2022/12/10 07:44:28;;;;;;;22.07;15.23;;;0.80;99.90;;;;;;5070651;28;20468;-50
2022/12/10 07:46:57;;;;;;;24.50;16.67;;;0.80;99.90;;;;;;5066468;28;20445;-52
2022/12/10 07:49:24;;;;;;;23.70;18.13;;;0.70;99.90;;;;;;5070087;28;20437;-53
2022/12/10 07:51:51;;;;;;;22.60;18.83;;;0.50;99.90;;;;;;5063737;28;20460;-50
2022/12/10 07:54:19;;;;;;;25.80;18.90;;;0.40;99.90;;;;;;5070460;28;20901;-50
2022/12/10 07:56:47;;;;;;;26.63;20.67;;;0.50;99.90;;;;;;5064733;28;20494;-50
2022/12/10 07:59:13;;;;;;;20.53;16.60;;;0.50;99.90;;;;;;5068136;28;20944;-50
2022/12/10 08:01:41;;;;;;;20.70;17.10;;;0.50;99.90;;;;;;5067510;28;20441;-51
2022/12/10 08:04:10;;;;;;;26.73;16.40;;;0.50;99.90;;;;;;5061680;28;21051;-51
2022/12/10 08:06:37;;;;;;;18.90;16.17;;;0.70;99.90;;;;;;5063351;28;20487;-51
2022/12/10 08:09:03;;;;;;;20.80;16.37;;;0.80;99.90;;;;;;5056550;28;20453;-50
2022/12/10 08:11:32;;;;;;;25.63;18.97;;;0.90;99.90;;;;;;5055835;28;20464;-50
2022/12/10 08:13:59;;;;;;;26.17;20.30;;;0.90;99.90;;;;;;5057520;28;20557;-50
2022/12/10 08:16:28;;;;;;;29.23;23.87;;;1.00;99.90;;;;;;5071813;28;20444;-50
2022/12/10 08:18:57;;;;;;;28.97;18.80;;;1.00;99.90;;;;;;5060978;28;20832;-51
2022/12/10 08:21:27;;;;;;;24.07;18.70;;;1.10;99.90;;;;;;5055843;28;20470;-52
2022/12/10 08:23:55;;;;;;;21.87;17.63;;;1.20;99.90;;;;;;5056572;28;20720;-51
2022/12/10 08:26:24;;;;;;;21.37;17.70;;;1.20;99.90;;;;;;5057086;28;20524;-49
2022/12/10 08:28:51;;;;;;;23.07;18.40;;;1.00;99.90;;;;;;5065002;28;20438;-50
2022/12/10 08:31:20;;;;;;;26.73;21.30;;;0.80;99.90;;;;;;5069052;28;20630;-50
2022/12/10 08:33:46;;;;;;;24.30;18.87;;;1.10;99.90;;;;;;5070957;28;20543;-50
2022/12/10 08:36:15;;;;;;;26.80;23.90;;;1.20;99.90;;;;;;5069731;28;20451;-49
2022/12/10 08:38:45;;;;;;;29.93;20.13;;;1.10;99.90;;;;;;5069020;28;20451;-51
2022/12/10 08:41:13;;;;;;;27.03;20.17;;;1.00;99.90;;;;;;5057990;28;20934;-51
2022/12/10 08:43:41;;;;;;;27.10;21.07;;;0.60;99.90;;;;;;5070707;28;20492;-49
2022/12/10 08:46:07;;;;;;;30.37;22.07;;;0.50;99.90;;;;;;5071073;28;20437;-50
2022/12/10 08:48:35;;;;;;;28.63;22.60;;;0.80;99.90;;;;;;5071266;28;20437;-49
2022/12/10 08:51:02;;;;;;;27.03;19.83;;;1.00;99.90;;;;;;5071328;28;20540;-50
2022/12/10 08:53:29;;;;;;;27.00;20.30;;;1.20;99.90;;;;;;5063779;28;20914;-50
2022/12/10 08:55:57;;;;;;;24.37;17.97;;;1.20;99.90;;;;;;5055358;28;20520;-51
2022/12/10 08:58:24;;;;;;;26.10;18.77;;;1.10;99.90;;;;;;5070449;28;20524;-49
2022/12/10 09:00:51;;;;;;;31.53;22.20;;;0.90;99.90;;;;;;5069214;28;20993;-49
2022/12/10 09:03:19;;;;;;;27.90;20.30;;;0.50;99.90;;;;;;5070079;28;20469;-49
2022/12/10 09:05:46;;;;;;;25.40;19.77;;;0.50;99.90;;;;;;5060947;28;20953;-48
2022/12/10 09:08:13;;;;;;;29.77;19.40;;;0.70;99.90;;;;;;5059743;28;20484;-49
2022/12/10 09:10:41;;;;;;;27.30;20.93;;;0.80;99.90;;;;;;5055066;28;20954;-49
2022/12/10 09:13:10;;;;;;;25.33;20.87;;;1.00;99.90;;;;;;5068456;28;20460;-48
2022/12/10 09:15:37;;;;;;;25.50;20.13;;;1.00;99.90;;;;;;5068145;28;20449;-50
2022/12/10 09:18:04;;;;;;;22.73;17.90;;;1.10;99.90;;;;;;5062054;28;20450;-50
2022/12/10 09:20:31;;;;;;;34.47;20.30;;;0.60;99.90;;;;;;5067992;28;20561;-50
2022/12/10 09:22:58;;;;;;;26.77;18.07;;;0.50;99.90;;;;;;5054381;28;20461;-49
2022/12/10 09:25:25;;;;;;;30.47;20.03;;;0.40;99.90;;;;;;5054740;28;20441;-49
2022/12/10 09:27:52;;;;;;;28.93;18.67;;;0.40;99.90;;;;;;5055206;28;20950;-48
2022/12/10 09:30:20;;;;;;;27.47;20.60;;;0.60;99.90;;;;;;5054772;28;20447;-48
2022/12/10 09:32:47;;;;;;;28.40;19.03;;;0.70;99.90;;;;;;5054316;28;20553;-48
2022/12/10 09:35:14;;;;;;;28.43;22.60;;;0.80;99.90;;;;;;5057578;28;20441;-51
2022/12/10 09:37:41;;;;;;;54.30;24.83;;;0.70;99.90;;;;;;5064937;28;20532;-48
2022/12/10 09:40:10;;;;;;;27.10;19.90;;;0.80;99.90;;;;;;5073178;28;20926;-49
2022/12/10 09:42:49;;;;;;;28.43;21.53;;;1.10;99.90;;;;;;5061537;28;20530;-51
2022/12/10 09:45:27;;;;;;;24.80;19.20;;;1.20;99.90;;;;;;5062891;28;21169;-48
2022/12/10 09:48:02;;;;;;;26.63;20.40;;;1.20;99.90;;;;;;5053946;28;20882;-49
2022/12/10 09:50:36;;;;;;;26.87;21.07;;;1.20;99.90;;;;;;5067964;28;21140;-49
2022/12/10 09:53:05;;;;;;;28.93;20.43;;;1.10;99.90;;;;;;5073880;28;20484;-48
2022/12/10 09:55:36;;;;;;;26.43;19.40;;;1.10;99.90;;;;;;5073435;28;20441;-50
2022/12/10 09:58:05;;;;;;;29.70;19.60;;;1.20;99.90;;;;;;5073687;28;20535;-48
2022/12/10 10:00:37;;;;;;;27.10;19.87;;;1.20;99.90;;;;;;5063117;28;20906;-51
2022/12/10 10:03:06;;;;;;;23.10;18.20;;;1.20;99.90;;;;;;5052412;28;20541;-50
2022/12/10 10:05:36;;;;;;;20.13;16.90;;;1.10;99.90;;;;;;5052525;28;20449;-49
2022/12/10 10:08:06;;;;;;;20.80;16.43;;;0.80;99.90;;;;;;5052546;28;20441;-50
2022/12/10 10:10:35;;;;;;;20.27;17.13;;;0.70;99.90;;;;;;5052336;28;20863;-49
2022/12/10 10:13:13;;;;;;;21.90;15.77;;;1.00;99.90;;;;;;5052196;28;20540;-48
2022/12/10 10:15:44;;;;;;;22.93;17.50;;;1.00;99.90;;;;;;5052381;28;20449;-49
2022/12/10 10:18:18;;;;;;;19.60;16.03;;;1.20;99.90;;;;;;5051573;28;20456;-49
2022/12/10 10:20:45;;;;;;;25.03;18.43;;;1.40;99.90;;;;;;5051942;28;20477;-51
2022/12/10 10:23:16;;;;;;;25.60;18.90;;;1.40;99.90;;;;;;5051460;28;20548;-49
2022/12/10 10:25:43;;;;;;;26.23;18.87;;;1.40;99.90;;;;;;5052986;28;20540;-49
2022/12/10 10:28:13;;;;;;;25.40;18.10;;;1.30;99.90;;;;;;5063026;28;20456;-49
2022/12/10 10:30:44;;;;;;;26.10;17.90;;;1.20;99.90;;;;;;5051580;28;20438;-50
2022/12/10 10:33:12;;;;;;;21.60;18.07;;;1.10;99.90;;;;;;5062523;28;20460;-49
2022/12/10 10:35:45;;;;;;;20.97;16.10;;;0.80;99.90;;;;;;5064660;28;20531;-47
2022/12/10 10:38:19;;;;;;;22.33;18.07;;;0.70;99.90;;;;;;5070795;28;20523;-48
2022/12/10 10:40:50;;;;;;;24.80;18.57;;;1.10;99.90;;;;;;5060796;28;20874;-48
2022/12/10 10:43:22;;;;;;;22.93;17.17;;;1.30;99.90;;;;;;5056492;28;20500;-48
2022/12/10 10:45:54;;;;;;;21.87;16.07;;;1.40;99.90;;;;;;5063714;28;20437;-48
2022/12/10 10:48:24;;;;;;;28.20;19.77;;;1.40;99.90;;;;;;5060511;28;20890;-48
2022/12/10 10:50:52;;;;;;;29.27;20.20;;;1.40;99.90;;;;;;5053869;28;20540;-48
2022/12/10 10:53:27;;;;;;;22.07;18.27;;;1.50;99.90;;;;;;5055506;28;20462;-50
2022/12/10 10:55:57;;;;;;;26.97;19.57;;;1.40;99.90;;;;;;5068736;28;20440;-51
2022/12/10 10:58:26;;;;;;;25.87;18.63;;;1.10;99.90;;;;;;5056350;28;20450;-50
2022/12/10 11:01:00;;;;;;;23.70;18.97;;;1.00;99.90;;;;;;5050752;28;20466;-50
2022/12/10 11:03:28;;;;;;;25.60;19.83;;;1.20;99.90;;;;;;5059013;28;21037;-48
2022/12/10 11:05:57;;;;;;;22.80;18.53;;;1.10;99.90;;;;;;5064560;28;20536;-50
2022/12/10 11:08:27;;;;;;;27.67;18.20;;;0.80;99.90;;;;;;5051266;28;20466;-48
2022/12/10 11:11:01;;;;;;;25.17;20.87;;;0.70;99.90;;;;;;5051655;28;20445;-49
2022/12/10 11:13:30;;;;;;;25.53;19.67;;;1.00;99.90;;;;;;5051592;28;20462;-51
2022/12/10 11:16:01;;;;;;;26.73;20.07;;;1.20;99.90;;;;;;5052032;28;20532;-48
2022/12/10 11:18:33;;;;;;;26.67;20.60;;;1.10;99.90;;;;;;5050889;28;20528;-51
2022/12/10 11:21:03;;;;;;;26.43;21.13;;;1.30;99.90;;;;;;5049665;28;20484;-48
2022/12/10 11:23:32;;;;;;;23.20;19.27;;;1.40;99.90;;;;;;5050149;28;20561;-50
2022/12/10 11:26:09;;;;;;;24.43;18.87;;;1.40;99.90;;;;;;5050269;28;20448;-50
2022/12/10 11:28:45;;;;;;;24.73;17.67;;;1.50;99.90;;;;;;5050845;28;20445;-48
2022/12/10 11:31:30;;;;;;;23.33;17.47;;;1.50;99.90;;;;;;5050857;28;20445;-50
2022/12/10 11:34:04;;;;;;;21.10;16.70;;;1.40;99.90;;;;;;5050719;28;20457;-49
2022/12/10 11:36:39;;;;;;;23.27;18.57;;;1.00;99.90;;;;;;5066870;28;20528;-50
2022/12/10 11:39:20;;;;;;;22.97;18.47;;;0.90;99.90;;;;;;5070742;28;20829;-49
2022/12/10 11:41:53;;;;;;;34.93;23.50;;;0.90;99.90;;;;;;5070842;28;20479;-49
2022/12/10 11:44:30;;;;;;;64.10;40.90;;;1.30;99.90;;;;;;5070522;28;20465;-51
2022/12/10 11:47:22;;;;;;;43.93;30.77;;;1.40;99.90;;;;;;5070246;28;20528;-49
2022/12/10 11:49:59;;;;;;;26.17;20.10;;;1.50;99.90;;;;;;5069953;28;20536;-49
2022/12/10 11:52:40;;;;;;;28.67;19.30;;;1.40;99.90;;;;;;5072187;28;20432;-49
2022/12/10 11:55:19;;;;;;;28.50;18.33;;;1.30;99.90;;;;;;5071683;28;20490;-51
2022/12/10 11:57:53;;;;;;;21.47;16.97;;;1.30;99.90;;;;;;5071662;28;20531;-49
2022/12/10 12:00:23;;;;;;;22.13;15.37;;;1.40;99.90;;;;;;5071376;28;20447;-49
2022/12/10 12:03:14;;;;;;;22.80;17.40;;;1.20;99.90;;;;;;5071534;28;20496;-49
2022/12/10 12:05:53;;;;;;;22.30;17.57;;;1.10;99.90;;;;;;5050561;28;20482;-52
2022/12/10 12:08:25;;;;;;;47.73;27.80;;;1.30;99.90;;;;;;5063349;28;20434;-51
2022/12/10 12:11:08;;;;;;;37.10;23.70;;;1.30;99.90;;;;;;5052389;28;20915;-49
2022/12/10 12:13:40;;;;;;;22.97;18.80;;;1.40;99.90;;;;;;5057237;28;21050;-49
2022/12/10 12:16:12;;;;;;;24.10;18.60;;;1.20;99.90;;;;;;5068773;28;20445;-48
2022/12/10 12:18:47;;;;;;;29.67;20.67;;;1.30;99.90;;;;;;5070349;28;20435;-49
2022/12/10 12:21:16;;;;;;;22.87;19.30;;;1.40;99.90;;;;;;5071208;28;20575;-49
2022/12/10 12:23:48;;;;;;;22.93;18.77;;;1.20;99.90;;;;;;5071343;28;20482;-48
2022/12/10 12:26:21;;;;;;;22.40;17.70;;;1.40;99.90;;;;;;5070290;28;20522;-49
2022/12/10 12:28:53;;;;;;;23.53;18.37;;;1.40;99.90;;;;;;5069170;28;20533;-48
2022/12/10 12:31:23;;;;;;;21.07;17.00;;;1.30;99.90;;;;;;5070086;28;20524;-48
2022/12/10 12:33:59;;;;;;;26.73;19.63;;;1.20;99.90;;;;;;5059865;28;20540;-50
2022/12/10 12:36:30;;;;;;;26.20;19.60;;;1.10;99.90;;;;;;5050106;28;20446;-49
2022/12/10 12:39:03;;;;;;;27.53;20.03;;;1.10;99.90;;;;;;5049366;28;21034;-48
2022/12/10 12:41:38;;;;;;;23.43;18.37;;;1.20;99.90;;;;;;5049235;28;20568;-50
2022/12/10 12:44:13;;;;;;;23.10;18.37;;;1.30;99.90;;;;;;5051670;28;20465;-48
2022/12/10 12:46:43;;;;;;;22.93;17.80;;;1.30;99.90;;;;;;5050832;28;20524;-51
2022/12/10 12:49:19;;;;;;;27.40;21.30;;;1.50;99.90;;;;;;5050744;28;20532;-49
2022/12/10 12:51:51;;;;;;;22.17;19.77;;;1.50;99.90;;;;;;5068263;28;20867;-48
2022/12/10 12:54:18;;;;;;;22.40;17.93;;;1.50;99.90;;;;;;5070490;28;20472;-49
2022/12/10 12:57:04;;;;;;;22.63;19.27;;;1.30;99.90;;;;;;5070568;28;20810;-48
2022/12/10 12:59:52;;;;;;;27.43;18.47;;;1.20;99.90;;;;;;5070661;28;20532;-48